Terminal Aerodrome Forecast
Issued by NWS

Home | Current Version | Previous Version | Text Only | Print | Product List | Glossary On
Versions: 1 2 3 4 5 6 7 8 9 10 11 12 13 14 15 16 17 18
890
FTAK31 PAJN 191136
TAFAKT
TAF
PAKT 191136Z 1912/2012 30005KT 5SM BR SCT007 BKN013 OVC025
     FM191900 30006KT P6SM BKN025
     FM200000 28007KT P6SM FEW025 BKN050
     FM200600 16007KT P6SM SCT025 BKN050
      AMD LTD TO CLD VIS AND WIND 1912/1915=

USA.gov is the U.S. government's official web portal to all federal, state and local government web resources and services.